Aérodrome :







RETROUVEZ-NOUS SUR...

 
LOGIN :

S'inscrire | Disclaimer

   EN    FR    IT 

 









Légende :    VFR   VFR Marginal   IFR   IFR Intensif   IFR Très Intensif
Visi : 
Plafond : 
>= 8 km
>= 3000ft
5 à 8 km
1000 à 3000 ft
1500m à 5 km
500 à 1000 ft
800 à 1500m
200 à 500 ft
< 800m
< 200 ft
Symboles :   Orages  Brouillard  Fortes neiges  Fortes précipitations  Vent > 20 kt






- Altitude de l'aérodrome : 90 ft
- Code IATA : YHU


CYHU - Montréal Saint-Hubert

DERNIER METAR :
  • 121100Z AUTO 35011KT 1SM R24R/P6000FT/D -SN VV012 M06/M08 A2985 RMK SLP110

METARs EXPIRÉS :
  • 121000Z AUTO 36013KT 3/4SM R24R/P6000FT/U -SN VV010 M07/M08 A2986 RMK SLP113
  • 120954Z AUTO 36013G19KT 3/4SM R24R/P6000FT/U -SN VV010 M07/M08 A2986 RMK SLP113
  • 120900Z AUTO 36015KT 3/4SM R24R/5000FT/N -SN VV009 M07/M09 A2986 RMK SLP116
  • 120852Z AUTO 36016G21KT 3/4SM R24R/5500FT/N -SN VV010 M07/M09 A2987 RMK SLP117

TAF TAF CYHU
Valide du 12 à 06h jusqu'au 13 à 06h UTC


120538Z 1206/1306 03012G22KT 3/4SM -SN VV007
TEMPO 1206/1211 2SM -SN OVC012
FM121100 01010G20KT 1SM -SN VV010
TEMPO 1211/1214 6SM -SN BKN025 OVC060
FM121400 31015KT P6SM -SN BKN030 OVC070
BECMG 1216/1218 30015KT
FM122000 28015G25KT P6SM BKN030 RMK FCST BASED ON AUTO OBS. NXT FCST BY 121200Z



MET'MAP, la Météo Aéronautique d'un coup d'oeil ! - Copyright ORBIFLY Décembre 2007 - Disclaimer

ORBIFLY MET'MAP TEAM :

Programmation & Développement : Alexandra Zaïnal
Conception & Développement : Baudouin d'Aumeries
Co-Programmation & Développement : Marc-Olivier Méhu
Soutien technique & logistique : Manuel Goepfert

Contact : metmap@orbifly.com




SOURCES & CREDITS :

   NOAA